Pekin, Ohio
Current Conditions -  °F | °C
As of 10:51 AM on Thursday 23 Oct 2014 (Local Time) from KCAK Reporting Station
Broken Clouds Broken Clouds  
Wind Chill: 52°   Ceiling: 1200
Heat Index: 52°   Visibility: 7mi
Dew Point: 45°   Wind: 10mph
Humidity: 77%   Direction: 340°NNW
Pressure: 30.19"   Gusts: NA
Location:  40.7427°N, 81.0929°W
Report Text: KCAK 231451Z 34009KT 7SM BKN012 11/07 A3019 RMK AO2 SLP227 T01110072 50003
Loading
Personal Weather Stations






























Interactive Weather Map
Tropical Storm Tracking
New forecast layout! Learn more

10-Day Weather Forecast

Advertisements
Track Severe Weather on mobile